Capitol Logistics 7448

Operating for MZN



KAFW
Fort Worth Alliance Airport
Fort Worth, Texas
KMIA
Miami International Airport
Miami, Florida

Activity Log

Date Flight Route Aircraft Duration
02/16/2019 CPX337 KUSSO5 ZALEA SWB HRV Q105 BLVNS Y290 BAGGS SSCOT5 B763 2h 33m

Route Details

Aircraft Information
Primary: Boeing 767-300BDSF
Backup: Boeing 757-200SF
Route Data
Distance: 989nm
Duration: 3h 00m
Recm'd Route: KUSSO7 ZALEA AEX J58 HRV Q105 BLVNS Q102 CIGAR Y290 BAGGS SSCOT5
Origin Wx: KAFW 141853Z 05010G15KT 10SM SCT028 BKN250 21/13 A3002 RMK AO2 SLP160 T02110128 $
Dest. Wx: KMIA 141853Z 12015G18KT 10SM FEW035 28/17 A3007 RMK AO2 SLP184 T02780172
Notes: